createdAt,value
2022-07-27T00:01:22.019Z,100.00
2022-07-27T00:03:48.661Z,100.00
2022-07-27T00:06:15.367Z,100.00
2022-07-27T00:08:41.896Z,100.00
2022-07-27T00:11:08.881Z,100.00
2022-07-27T00:13:35.329Z,100.00
2022-07-27T00:16:01.972Z,100.00
2022-07-27T00:18:28.530Z,100.00
2022-07-27T00:20:55.069Z,100.00
2022-07-27T00:23:21.539Z,100.00
2022-07-27T00:25:47.993Z,100.00
2022-07-27T00:28:14.464Z,100.00
2022-07-27T00:30:40.939Z,100.00
2022-07-27T00:33:07.437Z,100.00
2022-07-27T00:35:33.956Z,100.00
2022-07-27T00:38:02.247Z,100.00
2022-07-27T00:40:28.687Z,100.00
2022-07-27T00:42:55.189Z,100.00
2022-07-27T00:45:21.627Z,100.00
2022-07-27T00:47:53.087Z,100.00
2022-07-27T00:50:21.369Z,100.00
2022-07-27T00:52:47.861Z,100.00
2022-07-27T00:55:14.314Z,100.00
2022-07-27T00:57:59.038Z,100.00
2022-07-27T01:00:29.595Z,100.00
2022-07-27T01:02:57.306Z,100.00
2022-07-27T01:05:24.460Z,100.00
2022-07-27T01:08:02.782Z,100.00
2022-07-27T01:10:29.218Z,100.00
2022-07-27T01:12:55.655Z,100.00
2022-07-27T01:15:22.293Z,100.00
2022-07-27T01:17:48.730Z,100.00
2022-07-27T01:20:15.245Z,100.00
2022-07-27T01:22:42.168Z,100.00
2022-07-27T01:25:10.088Z,100.00
2022-07-27T01:27:36.922Z,100.00
2022-07-27T01:30:24.191Z,100.00
2022-07-27T01:32:50.891Z,100.00
2022-07-27T01:35:17.405Z,100.00
2022-07-27T01:37:48.054Z,100.00
2022-07-27T01:40:14.841Z,100.00
2022-07-27T01:42:41.293Z,100.00
2022-07-27T01:45:08.686Z,100.00
2022-07-27T01:47:35.195Z,100.00
2022-07-27T01:50:02.174Z,100.00
2022-07-27T01:52:28.740Z,100.00
2022-07-27T01:54:55.174Z,100.00
2022-07-27T01:57:21.636Z,100.00
2022-07-27T01:59:48.068Z,100.00
2022-07-27T02:02:16.109Z,100.00
2022-07-27T02:04:42.806Z,100.00
2022-07-27T02:07:09.268Z,100.00
2022-07-27T02:09:35.733Z,100.00
2022-07-27T02:12:20.743Z,100.00
2022-07-27T02:14:47.182Z,100.00
2022-07-27T02:17:13.636Z,100.00
2022-07-27T02:19:41.544Z,100.00
2022-07-27T02:22:08.898Z,100.00
2022-07-27T02:24:37.785Z,100.00
2022-07-27T02:27:04.407Z,100.00
2022-07-27T02:29:30.931Z,100.00
2022-07-27T02:31:57.399Z,100.00
2022-07-27T02:34:23.828Z,100.00
2022-07-27T02:36:50.257Z,100.00
2022-07-27T02:39:16.704Z,100.00
2022-07-27T02:41:44.893Z,100.00
2022-07-27T02:44:11.397Z,100.00
2022-07-27T02:46:37.862Z,100.00
2022-07-27T02:49:04.391Z,100.00
2022-07-27T02:51:31.075Z,100.00
2022-07-27T02:53:57.534Z,100.00
2022-07-27T02:56:26.878Z,100.00
2022-07-27T02:58:53.919Z,100.00
2022-07-27T03:01:20.446Z,100.00
2022-07-27T03:03:47.279Z,100.00
2022-07-27T03:06:13.940Z,100.00
2022-07-27T03:08:40.469Z,100.00
2022-07-27T03:11:08.430Z,100.00
2022-07-27T03:13:34.873Z,100.00
2022-07-27T03:16:01.528Z,100.00
2022-07-27T03:18:28.111Z,100.00
2022-07-27T03:20:54.578Z,100.00
2022-07-27T03:23:21.507Z,100.00
2022-07-27T03:25:48.361Z,100.00
2022-07-27T03:28:14.829Z,100.00
2022-07-27T03:30:41.344Z,100.00
2022-07-27T03:33:07.866Z,100.00
2022-07-27T03:35:34.368Z,100.00
2022-07-27T03:38:00.811Z,100.00
2022-07-27T03:40:29.466Z,100.00
2022-07-27T03:42:56.182Z,100.00
2022-07-27T03:45:22.636Z,100.00
2022-07-27T03:47:49.079Z,100.00
2022-07-27T03:50:15.532Z,100.00
2022-07-27T03:52:45.664Z,100.00
2022-07-27T03:55:12.414Z,100.00
2022-07-27T03:57:38.844Z,100.00
2022-07-27T04:00:06.778Z,100.00
2022-07-27T04:02:33.328Z,100.00
2022-07-27T04:04:59.933Z,100.00
2022-07-27T04:07:26.429Z,100.00
2022-07-27T04:09:52.909Z,100.00
2022-07-27T04:12:19.931Z,100.00
2022-07-27T04:14:46.616Z,100.00
2022-07-27T04:17:13.087Z,100.00
2022-07-27T04:19:59.548Z,100.00
2022-07-27T04:22:26.286Z,100.00
2022-07-27T04:24:52.723Z,100.00
2022-07-27T04:27:19.270Z,100.00
2022-07-27T04:29:45.698Z,100.00
2022-07-27T04:32:12.155Z,100.00
2022-07-27T04:34:38.604Z,100.00
2022-07-27T04:37:05.865Z,100.00
2022-07-27T04:39:32.321Z,100.00
2022-07-27T04:41:58.757Z,100.00
2022-07-27T04:44:25.556Z,100.00
2022-07-27T04:46:52.090Z,100.00
2022-07-27T04:49:18.619Z,100.00
2022-07-27T04:51:45.295Z,100.00
2022-07-27T04:54:12.360Z,100.00
2022-07-27T04:56:38.883Z,100.00
2022-07-27T04:59:05.374Z,100.00
2022-07-27T05:01:35.114Z,100.00
2022-07-27T05:04:04.011Z,100.00
2022-07-27T05:06:32.848Z,100.00
2022-07-27T05:08:59.558Z,100.00
2022-07-27T05:11:26.027Z,100.00
2022-07-27T05:13:52.522Z,100.00
2022-07-27T05:16:18.967Z,100.00
2022-07-27T05:18:46.084Z,100.00
2022-07-27T05:21:12.531Z,100.00
2022-07-27T05:23:38.986Z,100.00
2022-07-27T05:26:05.488Z,100.00
2022-07-27T05:28:32.278Z,100.00
2022-07-27T05:30:58.872Z,100.00
2022-07-27T05:33:25.531Z,100.00
2022-07-27T05:35:52.030Z,100.00
2022-07-27T05:38:18.464Z,100.00
2022-07-27T05:40:45.774Z,100.00
2022-07-27T05:43:12.291Z,100.00
2022-07-27T05:45:38.824Z,100.00
2022-07-27T05:48:05.635Z,100.00
2022-07-27T05:50:32.110Z,100.00
2022-07-27T05:53:00.518Z,100.00
2022-07-27T05:55:27.158Z,100.00
2022-07-27T05:57:53.638Z,100.00
2022-07-27T06:00:20.109Z,100.00
2022-07-27T06:02:46.585Z,100.00
2022-07-27T06:05:15.877Z,100.00
2022-07-27T06:07:59.240Z,100.00
2022-07-27T06:10:27.396Z,100.00
2022-07-27T06:12:53.894Z,100.00
2022-07-27T06:15:20.337Z,100.00
2022-07-27T06:17:48.966Z,100.00
2022-07-27T06:20:15.415Z,100.00
2022-07-27T06:23:00.818Z,100.00
2022-07-27T06:25:34.081Z,100.00
2022-07-27T06:28:02.316Z,100.00
2022-07-27T06:30:28.965Z,100.00
2022-07-27T06:32:55.466Z,100.00
2022-07-27T06:35:23.222Z,100.00
2022-07-27T06:37:53.123Z,100.00
2022-07-27T06:40:20.055Z,100.00
2022-07-27T06:42:46.580Z,100.00
2022-07-27T06:45:13.061Z,100.00
2022-07-27T06:47:48.968Z,100.00
2022-07-27T06:50:20.309Z,100.00
2022-07-27T06:52:49.566Z,100.00
2022-07-27T06:55:16.260Z,100.00
2022-07-27T06:57:43.143Z,100.00
2022-07-27T07:00:10.359Z,100.00
2022-07-27T07:02:36.831Z,100.00
2022-07-27T07:05:04.106Z,100.00
2022-07-27T07:07:31.715Z,100.00
2022-07-27T07:09:58.200Z,100.00
2022-07-27T07:12:25.628Z,100.00
2022-07-27T07:14:52.100Z,100.00
2022-07-27T07:17:18.593Z,100.00
2022-07-27T07:19:46.462Z,100.00
2022-07-27T07:22:12.941Z,100.00
2022-07-27T07:24:39.448Z,100.00
2022-07-27T07:27:05.983Z,100.00
2022-07-27T07:29:32.407Z,100.00
2022-07-27T07:31:58.886Z,100.00
2022-07-27T07:34:25.406Z,100.00
2022-07-27T07:36:51.854Z,100.00
2022-07-27T07:39:18.353Z,100.00
2022-07-27T07:41:44.812Z,100.00
2022-07-27T07:44:11.257Z,100.00
2022-07-27T07:46:37.871Z,100.00
2022-07-27T07:49:05.034Z,100.00
2022-07-27T07:51:32.094Z,100.00
2022-07-27T07:53:58.666Z,100.00
2022-07-27T07:56:25.111Z,100.00
2022-07-27T07:58:51.654Z,100.00
2022-07-27T08:01:18.159Z,100.00
2022-07-27T08:03:50.280Z,100.00
2022-07-27T08:06:17.228Z,100.00
2022-07-27T08:08:43.711Z,100.00
2022-07-27T08:11:10.447Z,100.00
2022-07-27T08:13:36.931Z,100.00
2022-07-27T08:16:03.552Z,100.00
2022-07-27T08:18:30.124Z,100.00
2022-07-27T08:20:56.621Z,100.00
2022-07-27T08:23:23.147Z,100.00
2022-07-27T08:25:49.705Z,100.00
2022-07-27T08:28:16.184Z,100.00
2022-07-27T08:30:42.734Z,100.00
2022-07-27T08:33:09.798Z,100.00
2022-07-27T08:35:36.317Z,100.00
2022-07-27T08:38:04.888Z,100.00
2022-07-27T08:40:47.534Z,100.00
2022-07-27T08:43:24.893Z,100.00
2022-07-27T08:45:56.388Z,100.00
2022-07-27T08:48:24.864Z,100.00
2022-07-27T08:50:51.685Z,100.00
2022-07-27T08:53:18.515Z,100.00
2022-07-27T08:55:45.785Z,100.00
2022-07-27T08:58:12.482Z,100.00
2022-07-27T09:00:40.564Z,100.00
2022-07-27T09:03:07.205Z,100.00
2022-07-27T09:05:37.691Z,100.00
2022-07-27T09:08:15.548Z,100.00
2022-07-27T09:10:42.322Z,100.00
2022-07-27T09:13:21.159Z,100.00
2022-07-27T09:16:16.394Z,100.00
2022-07-27T09:18:37.497Z,100.00
2022-07-27T09:21:20.910Z,100.00
2022-07-27T09:23:50.159Z,100.00
2022-07-27T09:26:32.418Z,100.00
2022-07-27T09:29:00.932Z,100.00
2022-07-27T09:31:27.475Z,100.00
2022-07-27T09:33:55.416Z,100.00
2022-07-27T09:36:23.091Z,99.68
2022-07-27T09:39:05.409Z,100.00
2022-07-27T09:41:46.212Z,100.00
2022-07-27T09:47:03.696Z,100.00
2022-07-27T09:49:30.925Z,99.25
2022-07-27T09:52:01.112Z,97.42
2022-07-27T09:54:41.064Z,97.79
2022-07-27T09:57:08.948Z,97.16
2022-07-27T09:59:35.386Z,96.91
2022-07-27T10:02:01.969Z,95.19
2022-07-27T10:04:28.547Z,93.29
2022-07-27T10:07:04.664Z,91.77
2022-07-27T10:09:32.222Z,92.75
2022-07-27T10:11:58.744Z,93.41
2022-07-27T10:14:25.732Z,92.89
2022-07-27T10:16:52.492Z,93.52
2022-07-27T10:19:24.007Z,93.74
2022-07-27T10:21:50.575Z,94.40
2022-07-27T10:24:28.969Z,92.84
2022-07-27T10:26:55.650Z,89.45
2022-07-27T10:29:22.853Z,87.77
2022-07-27T10:31:52.428Z,87.77
2022-07-27T10:34:33.659Z,87.64
2022-07-27T10:37:07.831Z,87.87
2022-07-27T10:39:36.360Z,86.70
2022-07-27T10:42:29.740Z,87.45
2022-07-27T10:45:08.525Z,88.00
2022-07-27T10:47:37.748Z,87.67
2022-07-27T10:50:16.657Z,86.95
2022-07-27T10:52:51.143Z,85.72
2022-07-27T10:55:30.305Z,85.56
2022-07-27T10:57:57.888Z,87.13
2022-07-27T11:00:53.949Z,86.06
2022-07-27T11:03:24.791Z,86.14
2022-07-27T11:06:06.721Z,86.37
2022-07-27T11:08:48.479Z,85.91
2022-07-27T11:11:20.760Z,84.98
2022-07-27T11:13:49.574Z,84.05
2022-07-27T11:16:25.841Z,83.65
2022-07-27T11:18:54.303Z,83.68
2022-07-27T11:21:26.233Z,82.23
2022-07-27T11:23:58.389Z,82.54
2022-07-27T11:26:26.618Z,82.75
2022-07-27T11:28:53.250Z,81.57
2022-07-27T11:31:32.729Z,81.91
2022-07-27T11:34:06.699Z,79.52
2022-07-27T11:36:44.131Z,78.68
2022-07-27T11:39:19.730Z,76.93
2022-07-27T11:42:08.639Z,76.48
2022-07-27T11:44:39.927Z,76.47
2022-07-27T11:47:07.396Z,74.53
2022-07-27T11:49:33.927Z,75.20
2022-07-27T11:52:07.381Z,75.77
2022-07-27T11:54:35.714Z,75.95
2022-07-27T11:57:06.316Z,75.34
2022-07-27T11:59:59.136Z,74.89
2022-07-27T12:02:27.138Z,72.58
2022-07-27T12:04:57.883Z,70.70
2022-07-27T12:07:29.894Z,71.53
2022-07-27T12:10:02.030Z,70.78
2022-07-27T12:12:29.375Z,71.59
2022-07-27T12:14:58.874Z,72.98
2022-07-27T12:17:28.255Z,73.15
2022-07-27T12:20:14.197Z,70.89
2022-07-27T12:22:48.873Z,69.01
2022-07-27T12:25:18.385Z,69.96
2022-07-27T12:28:04.598Z,69.12
2022-07-27T12:30:38.850Z,68.36
2022-07-27T12:33:07.461Z,70.62
2022-07-27T12:35:45.921Z,70.94
2022-07-27T12:38:13.317Z,70.59
2022-07-27T12:40:50.811Z,69.97
2022-07-27T12:43:18.595Z,68.48
2022-07-27T12:45:45.190Z,66.55
2022-07-27T12:48:19.669Z,66.32
2022-07-27T12:50:48.445Z,68.46
2022-07-27T12:53:15.901Z,70.27
2022-07-27T12:55:42.838Z,71.39
2022-07-27T12:58:10.340Z,71.68
2022-07-27T13:00:37.336Z,72.03
2022-07-27T13:03:04.607Z,71.77
2022-07-27T13:05:31.747Z,71.93
2022-07-27T13:07:59.050Z,71.72
2022-07-27T13:10:26.387Z,70.27
2022-07-27T13:12:52.857Z,70.03
2022-07-27T13:15:19.815Z,70.21
2022-07-27T13:17:46.753Z,71.28
2022-07-27T13:20:14.099Z,70.67
2022-07-27T13:22:40.880Z,68.84
2022-07-27T13:25:16.425Z,67.77
2022-07-27T13:27:44.492Z,68.11
2022-07-27T13:30:11.388Z,68.47
2022-07-27T13:32:38.128Z,68.54
2022-07-27T13:35:05.335Z,69.87
2022-07-27T13:37:31.793Z,68.78
2022-07-27T13:40:00.313Z,67.58
2022-07-27T13:42:26.790Z,66.09
2022-07-27T13:45:08.159Z,65.93
2022-07-27T13:47:35.573Z,66.11
2022-07-27T13:50:02.158Z,66.03
2022-07-27T13:52:28.653Z,67.20
2022-07-27T13:54:55.347Z,66.98
2022-07-27T13:57:21.801Z,64.98
2022-07-27T13:59:48.246Z,66.54
2022-07-27T14:02:15.044Z,66.12
2022-07-27T14:04:43.859Z,65.97
2022-07-27T14:07:11.399Z,64.25
2022-07-27T14:09:56.487Z,63.83
2022-07-27T14:12:22.955Z,62.37
2022-07-27T14:14:49.385Z,61.54
2022-07-27T14:17:15.837Z,61.32
2022-07-27T14:19:42.316Z,61.01
2022-07-27T14:22:11.364Z,61.77
2022-07-27T14:24:38.672Z,62.97
2022-07-27T14:27:06.469Z,64.67
2022-07-27T14:29:33.802Z,66.28
2022-07-27T14:32:00.427Z,65.62
2022-07-27T14:34:26.976Z,65.14
2022-07-27T14:36:53.586Z,65.44
2022-07-27T14:39:20.083Z,63.52
2022-07-27T14:41:46.813Z,64.57
2022-07-27T14:44:14.029Z,65.40
2022-07-27T14:46:40.667Z,65.87
2022-07-27T14:49:08.555Z,66.36
2022-07-27T14:51:35.640Z,62.73
2022-07-27T14:54:03.635Z,63.65
2022-07-27T14:56:30.098Z,62.65
2022-07-27T14:58:56.581Z,63.46
2022-07-27T15:01:23.211Z,64.33
2022-07-27T15:03:49.756Z,65.30
2022-07-27T15:06:16.277Z,65.31
2022-07-27T15:08:42.750Z,66.71
2022-07-27T15:11:09.873Z,66.92
2022-07-27T15:13:36.360Z,68.80
2022-07-27T15:16:03.441Z,70.41
2022-07-27T15:18:36.476Z,70.68
2022-07-27T15:21:06.734Z,71.13
2022-07-27T15:23:39.726Z,71.26
2022-07-27T15:26:06.266Z,70.88
2022-07-27T15:28:32.824Z,69.74
2022-07-27T15:30:59.439Z,69.97
2022-07-27T15:33:26.745Z,68.38
2022-07-27T15:35:53.401Z,67.86
2022-07-27T15:38:19.929Z,66.25
2022-07-27T15:40:47.382Z,67.44
2022-07-27T15:43:15.583Z,67.68
2022-07-27T15:45:43.524Z,68.80
2022-07-27T15:48:10.607Z,69.76
2022-07-27T15:50:37.760Z,69.35
2022-07-27T15:53:04.305Z,69.35
2022-07-27T15:55:30.707Z,70.19
2022-07-27T15:57:57.679Z,69.43
2022-07-27T16:00:25.743Z,70.61
2022-07-27T16:02:52.402Z,71.50
2022-07-27T16:05:20.335Z,70.89
2022-07-27T16:07:46.806Z,70.87
2022-07-27T16:10:13.246Z,71.54
2022-07-27T16:12:39.787Z,72.14
2022-07-27T16:15:06.992Z,72.26
2022-07-27T16:17:33.439Z,70.70
2022-07-27T16:20:00.038Z,70.39
2022-07-27T16:22:26.828Z,70.82
2022-07-27T16:24:53.300Z,72.06
2022-07-27T16:27:19.812Z,73.08
2022-07-27T16:29:47.033Z,73.25
2022-07-27T16:32:13.628Z,73.80
2022-07-27T16:34:40.089Z,74.32
2022-07-27T16:37:06.739Z,74.88
2022-07-27T16:39:35.071Z,75.37
2022-07-27T16:42:01.580Z,76.04
2022-07-27T16:44:28.122Z,74.91
2022-07-27T16:46:54.721Z,74.74
2022-07-27T16:49:21.478Z,75.08
2022-07-27T16:51:59.971Z,75.31
2022-07-27T16:54:26.506Z,75.64
2022-07-27T16:56:53.584Z,76.18
2022-07-27T16:59:20.212Z,76.38
2022-07-27T17:01:46.723Z,76.73
2022-07-27T17:04:13.355Z,76.85
2022-07-27T17:06:39.918Z,76.72
2022-07-27T17:09:06.418Z,75.94
2022-07-27T17:11:37.152Z,75.53
2022-07-27T17:14:06.287Z,75.86
2022-07-27T17:16:33.348Z,76.18
2022-07-27T17:18:59.940Z,75.97
2022-07-27T17:21:26.466Z,76.97
2022-07-27T17:23:52.876Z,76.90
2022-07-27T17:26:19.560Z,77.66
2022-07-27T17:28:49.527Z,78.32
2022-07-27T17:31:18.706Z,78.18
2022-07-27T17:33:45.298Z,78.35
2022-07-27T17:36:15.445Z,78.14
2022-07-27T17:38:46.245Z,78.14
2022-07-27T17:41:13.428Z,78.46
2022-07-27T17:43:39.963Z,78.97
2022-07-27T17:46:07.679Z,78.91
2022-07-27T17:48:36.275Z,78.93
2022-07-27T17:51:07.109Z,79.53
2022-07-27T17:53:34.334Z,79.25
2022-07-27T17:56:03.105Z,79.30
2022-07-27T17:58:30.612Z,80.30
2022-07-27T18:00:57.494Z,80.70
2022-07-27T18:03:24.096Z,80.54
2022-07-27T18:05:50.649Z,80.69
2022-07-27T18:08:17.237Z,80.57
2022-07-27T18:10:43.915Z,81.19
2022-07-27T18:13:10.546Z,81.30
2022-07-27T18:15:54.668Z,81.71
2022-07-27T18:18:25.224Z,82.01
2022-07-27T18:20:53.138Z,82.28
2022-07-27T18:23:20.509Z,83.14
2022-07-27T18:25:47.128Z,83.53
2022-07-27T18:28:18.760Z,83.88
2022-07-27T18:30:46.170Z,84.26
2022-07-27T18:33:17.046Z,84.91
2022-07-27T18:35:44.750Z,85.10
2022-07-27T18:38:11.923Z,84.86
2022-07-27T18:40:39.179Z,85.51
2022-07-27T18:43:06.565Z,85.90
2022-07-27T18:45:34.667Z,86.20
2022-07-27T18:48:01.488Z,86.73
2022-07-27T18:50:27.997Z,86.97
2022-07-27T18:52:54.467Z,87.33
2022-07-27T18:55:24.982Z,87.78
2022-07-27T18:57:52.707Z,88.10
2022-07-27T19:00:22.505Z,88.51
2022-07-27T19:02:51.274Z,88.57
2022-07-27T19:05:40.607Z,89.37
2022-07-27T19:08:12.869Z,89.84
2022-07-27T19:10:44.191Z,90.27
2022-07-27T19:13:12.479Z,90.05
2022-07-27T19:15:39.613Z,91.10
2022-07-27T19:18:06.628Z,90.91
2022-07-27T19:20:33.437Z,91.09
2022-07-27T19:23:00.709Z,91.69
2022-07-27T19:25:27.306Z,93.14
2022-07-27T19:27:53.781Z,93.75
2022-07-27T19:30:20.288Z,93.59
2022-07-27T19:32:46.918Z,94.46
2022-07-27T19:35:13.492Z,95.02
2022-07-27T19:37:40.088Z,96.03
2022-07-27T19:40:33.471Z,96.14
2022-07-27T19:42:54.387Z,96.86
2022-07-27T19:45:20.962Z,97.53
2022-07-27T19:47:47.572Z,98.37
2022-07-27T19:50:14.122Z,98.98
2022-07-27T19:52:41.014Z,99.85
2022-07-27T19:55:07.909Z,100.00
2022-07-27T19:57:34.602Z,100.00
2022-07-27T20:00:02.714Z,99.33
2022-07-27T20:02:29.323Z,100.00
2022-07-27T20:04:55.934Z,100.00
2022-07-27T20:07:22.671Z,100.00
2022-07-27T20:09:49.291Z,100.00
2022-07-27T20:12:15.880Z,100.00
2022-07-27T20:14:42.481Z,100.00
2022-07-27T20:17:09.167Z,99.46
2022-07-27T20:19:35.714Z,100.00
2022-07-27T20:22:02.310Z,99.98
2022-07-27T20:24:29.427Z,100.00
2022-07-27T20:26:56.632Z,100.00
2022-07-27T20:29:23.400Z,100.00
2022-07-27T20:31:50.192Z,100.00
2022-07-27T20:34:19.237Z,100.00
2022-07-27T20:36:45.848Z,100.00
2022-07-27T20:39:17.201Z,100.00
2022-07-27T20:41:44.076Z,100.00
2022-07-27T20:44:10.677Z,100.00
2022-07-27T20:46:37.214Z,100.00
2022-07-27T20:49:04.353Z,100.00
2022-07-27T20:51:30.947Z,100.00
2022-07-27T20:53:58.295Z,100.00
2022-07-27T20:56:24.866Z,100.00
2022-07-27T20:58:51.813Z,100.00
2022-07-27T21:01:18.493Z,100.00
2022-07-27T21:03:45.053Z,100.00
2022-07-27T21:06:11.600Z,100.00
2022-07-27T21:08:41.585Z,100.00
2022-07-27T21:11:11.043Z,100.00
2022-07-27T21:13:37.642Z,100.00
2022-07-27T21:16:04.497Z,100.00
2022-07-27T21:18:31.126Z,100.00
2022-07-27T21:20:57.691Z,100.00
2022-07-27T21:23:42.853Z,100.00
2022-07-27T21:26:09.364Z,100.00
2022-07-27T21:28:36.087Z,100.00
2022-07-27T21:31:02.959Z,100.00
2022-07-27T21:33:29.512Z,100.00
2022-07-27T21:35:56.151Z,100.00
2022-07-27T21:38:22.669Z,100.00
2022-07-27T21:40:49.525Z,100.00
2022-07-27T21:43:16.092Z,100.00
2022-07-27T21:45:49.683Z,100.00
2022-07-27T21:48:16.429Z,100.00
2022-07-27T21:50:43.005Z,100.00
2022-07-27T21:53:09.609Z,100.00
2022-07-27T21:55:38.332Z,100.00
2022-07-27T21:58:04.924Z,100.00
2022-07-27T22:00:31.372Z,100.00
2022-07-27T22:02:57.858Z,100.00
2022-07-27T22:05:24.529Z,100.00
2022-07-27T22:07:51.516Z,100.00
2022-07-27T22:10:18.605Z,100.00
2022-07-27T22:12:45.281Z,100.00
2022-07-27T22:15:11.764Z,100.00
2022-07-27T22:17:50.352Z,100.00
2022-07-27T22:20:18.039Z,100.00
2022-07-27T22:22:44.678Z,100.00
2022-07-27T22:25:11.219Z,100.00
2022-07-27T22:27:37.677Z,100.00
2022-07-27T22:30:04.968Z,100.00
2022-07-27T22:32:31.409Z,100.00
2022-07-27T22:34:57.937Z,100.00
2022-07-27T22:37:24.463Z,100.00
2022-07-27T22:39:50.959Z,100.00
2022-07-27T22:42:17.395Z,100.00
2022-07-27T22:44:43.959Z,100.00
2022-07-27T22:47:10.693Z,100.00
2022-07-27T22:49:37.214Z,100.00
2022-07-27T22:52:07.069Z,100.00
2022-07-27T22:54:37.304Z,100.00
2022-07-27T22:57:06.871Z,100.00
2022-07-27T22:59:34.030Z,100.00
2022-07-27T23:02:00.909Z,100.00
2022-07-27T23:04:27.452Z,100.00
2022-07-27T23:06:53.902Z,100.00
2022-07-27T23:09:20.381Z,100.00
2022-07-27T23:11:46.851Z,100.00
2022-07-27T23:14:13.761Z,100.00
2022-07-27T23:16:41.038Z,100.00
2022-07-27T23:19:07.589Z,100.00
2022-07-27T23:21:34.093Z,100.00
2022-07-27T23:24:03.049Z,100.00
2022-07-27T23:26:31.365Z,100.00
2022-07-27T23:28:58.338Z,100.00
2022-07-27T23:31:25.976Z,100.00
2022-07-27T23:33:52.557Z,100.00
2022-07-27T23:36:19.064Z,100.00
2022-07-27T23:38:45.514Z,100.00
2022-07-27T23:41:11.966Z,100.00
2022-07-27T23:43:38.628Z,100.00
2022-07-27T23:46:06.620Z,100.00
2022-07-27T23:48:33.270Z,100.00
2022-07-27T23:50:59.741Z,100.00
2022-07-27T23:53:27.091Z,100.00
2022-07-27T23:55:53.587Z,100.00
2022-07-27T23:58:20.253Z,100.00
